createdAt,value
2018-03-04T00:02:04.590Z,69.07
2018-03-04T00:04:31.149Z,70.10
2018-03-04T00:06:57.718Z,71.03
2018-03-04T00:09:24.268Z,68.40
2018-03-04T00:11:50.813Z,68.07
2018-03-04T00:14:17.632Z,64.95
2018-03-04T00:16:44.222Z,66.18
2018-03-04T00:19:10.800Z,67.82
2018-03-04T00:21:37.425Z,69.90
2018-03-04T00:24:04.057Z,64.90
2018-03-04T00:26:30.883Z,67.85
2018-03-04T00:28:57.508Z,69.22
2018-03-04T00:31:24.228Z,70.03
2018-03-04T00:33:50.891Z,70.47
2018-03-04T00:36:18.210Z,68.37
2018-03-04T00:38:44.809Z,67.15
2018-03-04T00:41:12.131Z,70.18
2018-03-04T00:43:39.280Z,65.60
2018-03-04T00:46:06.641Z,64.18
2018-03-04T00:48:34.036Z,68.97
2018-03-04T00:51:01.408Z,63.00
2018-03-04T00:53:29.585Z,63.03
2018-03-04T00:55:57.704Z,64.12
2018-03-04T00:58:25.096Z,64.20
2018-03-04T01:00:52.489Z,61.50
2018-03-04T01:03:19.894Z,63.35
2018-03-04T01:05:47.296Z,69.75
2018-03-04T01:08:14.714Z,66.30
2018-03-04T01:10:42.938Z,65.05
2018-03-04T01:13:10.488Z,66.32
2018-03-04T01:15:37.887Z,67.00
2018-03-04T01:18:05.684Z,62.67
2018-03-04T01:20:34.152Z,60.97
2018-03-04T01:23:01.622Z,56.42
2018-03-04T01:25:31.342Z,57.85
2018-03-04T01:27:58.656Z,57.25
2018-03-04T01:30:26.794Z,57.92
2018-03-04T01:32:54.259Z,57.20
2018-03-04T01:35:22.063Z,54.63
2018-03-04T01:37:49.516Z,57.78
2018-03-04T01:40:17.152Z,55.47
2018-03-04T01:42:44.912Z,53.83
2018-03-04T01:45:12.613Z,57.45
2018-03-04T01:47:40.469Z,56.10
2018-03-04T01:50:07.950Z,56.10
2018-03-04T01:52:36.169Z,51.50
2018-03-04T01:55:02.803Z,57.20
2018-03-04T01:57:29.408Z,54.05
2018-03-04T02:00:05.071Z,54.03
2018-03-04T02:02:32.554Z,55.08
2018-03-04T02:04:59.678Z,54.75
2018-03-04T02:07:26.961Z,54.33
2018-03-04T02:09:53.575Z,53.38
2018-03-04T02:12:24.658Z,57.17
2018-03-04T02:14:51.278Z,56.15
2018-03-04T02:17:18.601Z,57.15
2018-03-04T02:19:45.160Z,56.90
2018-03-04T02:22:11.788Z,57.58
2018-03-04T02:24:38.372Z,57.47
2018-03-04T02:27:04.946Z,54.42
2018-03-04T02:29:32.735Z,53.50
2018-03-04T02:32:00.270Z,56.70
2018-03-04T02:34:27.086Z,56.45
2018-03-04T02:36:54.744Z,62.00
2018-03-04T02:39:22.926Z,53.80
2018-03-04T02:41:51.244Z,53.03
2018-03-04T02:44:18.163Z,52.15
2018-03-04T02:46:44.796Z,55.88
2018-03-04T02:49:12.157Z,55.17
2018-03-04T02:51:39.587Z,53.60
2018-03-04T02:54:07.026Z,52.88
2018-03-04T02:56:34.216Z,49.65
2018-03-04T02:59:00.917Z,50.78
2018-03-04T03:01:29.015Z,50.12
2018-03-04T03:03:55.742Z,54.88
2018-03-04T03:06:22.354Z,54.03
2018-03-04T03:08:51.070Z,52.35
2018-03-04T03:11:17.718Z,52.80
2018-03-04T03:13:44.429Z,52.13
2018-03-04T03:16:11.094Z,52.58
2018-03-04T03:18:37.674Z,53.30
2018-03-04T03:21:04.254Z,53.13
2018-03-04T03:23:31.615Z,53.13
2018-03-04T03:26:01.414Z,54.28
2018-03-04T03:28:28.864Z,53.47
2018-03-04T03:30:58.843Z,51.25
2018-03-04T03:33:25.500Z,49.58
2018-03-04T03:35:52.804Z,52.10
2018-03-04T03:38:21.685Z,53.15
2018-03-04T03:40:48.355Z,53.90
2018-03-04T03:43:14.973Z,51.80
2018-03-04T03:45:45.969Z,50.28
2018-03-04T03:48:14.640Z,51.40
2018-03-04T03:50:41.285Z,47.40
2018-03-04T03:53:32.077Z,52.30
2018-03-04T03:56:01.330Z,49.45
2018-03-04T03:58:28.100Z,50.00
2018-03-04T04:00:54.705Z,49.90
2018-03-04T04:03:22.120Z,48.92
2018-03-04T04:05:48.752Z,49.55
2018-03-04T04:08:15.708Z,49.72
2018-03-04T04:10:45.827Z,49.83
2018-03-04T04:13:12.478Z,48.75
2018-03-04T04:15:39.030Z,49.45
2018-03-04T04:18:05.626Z,52.40
2018-03-04T04:20:32.267Z,51.30
2018-03-04T04:22:58.876Z,48.03
2018-03-04T04:25:42.389Z,49.13
2018-03-04T04:28:09.093Z,49.80
2018-03-04T04:30:37.656Z,47.22
2018-03-04T04:33:05.004Z,48.25
2018-03-04T04:35:33.970Z,48.20
2018-03-04T04:38:02.033Z,49.78
2018-03-04T04:40:31.236Z,48.22
2018-03-04T04:42:59.594Z,48.60
2018-03-04T04:45:26.207Z,49.50
2018-03-04T04:47:54.981Z,49.97
2018-03-04T04:50:22.434Z,47.45
2018-03-04T04:52:51.000Z,47.50
2018-03-04T04:55:17.647Z,46.92
2018-03-04T04:57:45.889Z,47.42
2018-03-04T05:00:15.384Z,47.58
2018-03-04T05:02:42.117Z,47.80
2018-03-04T05:05:08.768Z,49.70
2018-03-04T05:07:35.395Z,47.38
2018-03-04T05:10:02.034Z,46.37
2018-03-04T05:12:35.568Z,45.60
2018-03-04T05:15:02.323Z,42.85
2018-03-04T05:17:28.896Z,46.67
2018-03-04T05:19:56.237Z,47.60
2018-03-04T05:22:23.299Z,44.60
2018-03-04T05:24:49.895Z,46.05
2018-03-04T05:27:16.440Z,45.53
2018-03-04T05:29:43.720Z,45.22
2018-03-04T05:32:11.215Z,46.03
2018-03-04T05:34:37.806Z,44.00
2018-03-04T05:37:05.174Z,44.53
2018-03-04T05:39:32.619Z,47.00
2018-03-04T05:41:59.194Z,45.33
2018-03-04T05:44:27.832Z,44.20
2018-03-04T05:46:54.420Z,46.08
2018-03-04T05:49:21.015Z,47.90
2018-03-04T05:51:47.636Z,44.25
2018-03-04T05:54:14.231Z,44.55
2018-03-04T05:56:40.805Z,43.30
2018-03-04T05:59:07.670Z,45.30
2018-03-04T06:01:34.824Z,44.35
2018-03-04T06:04:03.014Z,42.88
2018-03-04T06:06:29.584Z,43.80
2018-03-04T06:08:56.120Z,43.75
2018-03-04T06:11:23.051Z,45.22
2018-03-04T06:13:49.931Z,44.63
2018-03-04T06:16:16.808Z,44.90
2018-03-04T06:18:43.651Z,44.85
2018-03-04T06:21:10.999Z,43.22
2018-03-04T06:23:37.586Z,44.55
2018-03-04T06:26:04.164Z,43.75
2018-03-04T06:28:30.742Z,42.45
2018-03-04T06:30:57.368Z,45.17
2018-03-04T06:33:23.992Z,45.05
2018-03-04T06:35:50.555Z,43.35
2018-03-04T06:38:17.126Z,45.17
2018-03-04T06:40:43.668Z,44.97
2018-03-04T06:43:10.253Z,44.22
2018-03-04T06:45:36.897Z,43.80
2018-03-04T06:48:03.536Z,42.90
2018-03-04T06:50:30.113Z,46.15
2018-03-04T06:52:56.686Z,42.70
2018-03-04T06:55:23.287Z,44.80
2018-03-04T06:57:49.895Z,44.35
2018-03-04T07:00:16.466Z,45.83
2018-03-04T07:02:43.124Z,45.25
2018-03-04T07:05:09.953Z,46.10
2018-03-04T07:07:36.514Z,43.95
2018-03-04T07:10:04.318Z,42.80
2018-03-04T07:12:31.013Z,43.55
2018-03-04T07:14:57.625Z,44.35
2018-03-04T07:17:24.318Z,46.30
2018-03-04T07:19:50.905Z,46.70
2018-03-04T07:22:25.332Z,47.50
2018-03-04T07:24:51.898Z,48.58
2018-03-04T07:27:18.470Z,45.20
2018-03-04T07:29:45.048Z,49.05
2018-03-04T07:32:11.671Z,43.10
2018-03-04T07:34:38.253Z,47.15
2018-03-04T07:37:04.834Z,46.75
2018-03-04T07:39:31.421Z,46.17
2018-03-04T07:41:58.737Z,44.55
2018-03-04T07:44:25.296Z,43.47
2018-03-04T07:46:53.942Z,45.80
2018-03-04T07:49:21.242Z,42.53
2018-03-04T07:51:47.842Z,43.28
2018-03-04T07:54:14.380Z,47.90
2018-03-04T07:56:40.980Z,41.00
2018-03-04T07:59:07.544Z,44.78
2018-03-04T08:01:35.359Z,41.17
2018-03-04T08:04:02.711Z,40.95
2018-03-04T08:06:29.258Z,41.90
2018-03-04T08:08:55.826Z,41.42
2018-03-04T08:11:22.471Z,44.55
2018-03-04T08:13:49.025Z,41.97
2018-03-04T08:16:15.596Z,42.65
2018-03-04T08:18:42.168Z,39.88
2018-03-04T08:21:08.731Z,43.67
2018-03-04T08:23:35.398Z,40.78
2018-03-04T08:26:20.170Z,39.17
2018-03-04T08:28:47.034Z,39.38
2018-03-04T08:31:13.609Z,38.47
2018-03-04T08:33:40.258Z,38.20
2018-03-04T08:36:06.894Z,41.53
2018-03-04T08:38:33.503Z,40.55
2018-03-04T08:41:00.072Z,42.10
2018-03-04T08:43:26.746Z,38.88
2018-03-04T08:45:53.293Z,38.15
2018-03-04T08:48:21.005Z,37.15
2018-03-04T08:50:47.941Z,36.90
2018-03-04T08:53:14.652Z,36.90
2018-03-04T08:55:41.215Z,36.83
2018-03-04T08:58:08.494Z,34.95
2018-03-04T09:00:35.199Z,36.40
2018-03-04T09:03:01.808Z,37.83
2018-03-04T09:05:28.707Z,37.30
2018-03-04T09:08:22.554Z,36.45
2018-03-04T09:10:49.589Z,36.60
2018-03-04T09:13:17.046Z,34.60
2018-03-04T09:15:47.990Z,33.50
2018-03-04T09:18:17.498Z,35.55
2018-03-04T09:20:44.129Z,35.95
2018-03-04T09:23:13.134Z,34.65
2018-03-04T09:25:39.930Z,32.15
2018-03-04T09:28:07.107Z,31.52
2018-03-04T09:30:35.380Z,33.30
2018-03-04T09:33:02.056Z,32.40
2018-03-04T09:35:36.179Z,30.33
2018-03-04T09:38:02.887Z,29.02
2018-03-04T09:40:38.853Z,27.50
2018-03-04T09:43:05.507Z,27.33
2018-03-04T09:45:32.137Z,28.67
2018-03-04T09:48:05.189Z,27.73
2018-03-04T09:50:31.814Z,27.57
2018-03-04T09:53:10.468Z,29.67
2018-03-04T09:55:37.069Z,26.70
2018-03-04T09:58:03.779Z,25.87
2018-03-04T10:00:30.382Z,24.20
2018-03-04T10:02:57.100Z,28.47
2018-03-04T10:05:23.898Z,24.87
2018-03-04T10:07:50.472Z,25.10
2018-03-04T10:10:17.382Z,25.87
2018-03-04T10:12:44.140Z,25.13
2018-03-04T10:15:10.721Z,26.20
2018-03-04T10:17:37.264Z,24.80
2018-03-04T10:20:04.052Z,24.70
2018-03-04T10:22:30.651Z,26.00
2018-03-04T10:25:03.091Z,22.73
2018-03-04T10:27:30.399Z,23.70
2018-03-04T10:30:04.593Z,23.50
2018-03-04T10:32:31.923Z,24.20
2018-03-04T10:34:58.513Z,23.33
2018-03-04T10:37:25.096Z,23.40
2018-03-04T10:39:51.735Z,22.07
2018-03-04T10:42:18.292Z,22.90
2018-03-04T10:44:44.862Z,22.93
2018-03-04T10:47:11.414Z,25.17
2018-03-04T10:49:37.984Z,25.03
2018-03-04T10:52:04.582Z,25.00
2018-03-04T10:54:31.154Z,25.30
2018-03-04T10:56:57.748Z,21.50
2018-03-04T10:59:24.373Z,28.17
2018-03-04T11:01:50.939Z,21.30
2018-03-04T11:04:17.554Z,20.90
2018-03-04T11:06:44.133Z,22.23
2018-03-04T11:09:10.728Z,21.97
2018-03-04T11:11:37.778Z,22.40
2018-03-04T11:14:04.561Z,20.67
2018-03-04T11:16:31.137Z,20.10
2018-03-04T11:18:57.680Z,18.03
2018-03-04T11:21:24.242Z,19.43
2018-03-04T11:23:50.840Z,21.43
2018-03-04T11:26:17.375Z,22.03
2018-03-04T11:28:44.002Z,17.67
2018-03-04T11:31:10.519Z,19.30
2018-03-04T11:33:37.092Z,19.53
2018-03-04T11:36:03.677Z,17.57
2018-03-04T11:38:30.248Z,18.27
2018-03-04T11:40:56.806Z,20.67
2018-03-04T11:43:23.325Z,29.17
2018-03-04T11:45:49.899Z,19.40
2018-03-04T11:48:16.518Z,18.87
2018-03-04T11:50:43.065Z,17.63
2018-03-04T11:53:09.621Z,17.07
2018-03-04T11:55:36.180Z,16.50
2018-03-04T11:58:02.759Z,16.40
2018-03-04T12:00:29.496Z,18.83
2018-03-04T12:02:56.140Z,19.80
2018-03-04T12:05:22.742Z,14.80
2018-03-04T12:07:49.355Z,17.07
2018-03-04T12:10:15.928Z,17.00
2018-03-04T12:12:42.491Z,17.30
2018-03-04T12:15:09.056Z,16.50
2018-03-04T12:17:35.730Z,15.20
2018-03-04T12:20:02.293Z,15.37
2018-03-04T12:22:28.848Z,15.53
2018-03-04T12:24:55.406Z,17.87
2018-03-04T12:27:21.968Z,17.60
2018-03-04T12:29:48.567Z,17.00
2018-03-04T12:32:15.146Z,16.60
2018-03-04T12:34:41.723Z,17.10
2018-03-04T12:37:08.295Z,14.10
2018-03-04T12:39:35.640Z,15.40
2018-03-04T12:42:03.009Z,14.03
2018-03-04T12:44:30.356Z,13.10
2018-03-04T12:46:57.771Z,12.53
2018-03-04T12:49:25.133Z,12.70
2018-03-04T12:51:52.490Z,12.60
2018-03-04T12:54:19.825Z,13.53
2018-03-04T12:56:47.216Z,10.70
2018-03-04T12:59:14.579Z,11.80
2018-03-04T13:01:41.933Z,10.13
2018-03-04T13:04:09.315Z,10.07
2018-03-04T13:06:36.698Z,9.87
2018-03-04T13:09:04.258Z,10.27
2018-03-04T13:11:31.630Z,9.93
2018-03-04T13:13:59.000Z,9.43
2018-03-04T13:16:26.388Z,9.70
2018-03-04T13:18:53.764Z,8.90
2018-03-04T13:21:21.121Z,9.20
2018-03-04T13:23:48.473Z,9.00
2018-03-04T13:26:15.895Z,7.80
2018-03-04T13:28:44.072Z,7.83
2018-03-04T13:31:12.256Z,8.63
2018-03-04T13:33:39.712Z,8.37
2018-03-04T13:36:07.079Z,6.33
2018-03-04T13:38:34.505Z,6.43
2018-03-04T13:41:01.873Z,7.37
2018-03-04T13:43:29.424Z,6.67
2018-03-04T13:45:57.006Z,4.93
2018-03-04T13:48:24.474Z,6.90
2018-03-04T13:50:51.136Z,5.30
2018-03-04T13:53:17.764Z,5.70
2018-03-04T13:55:44.460Z,6.23
2018-03-04T13:58:11.190Z,5.93
2018-03-04T14:00:38.557Z,6.23
2018-03-04T14:03:05.876Z,8.63
2018-03-04T14:05:32.476Z,9.03
2018-03-04T14:07:59.775Z,9.60
2018-03-04T14:10:26.457Z,10.20
2018-03-04T14:12:53.153Z,10.70
2018-03-04T14:15:21.150Z,11.00
2018-03-04T14:17:47.861Z,11.90
2018-03-04T14:20:14.658Z,11.47
2018-03-04T14:22:41.623Z,10.90
2018-03-04T14:25:08.230Z,10.90
2018-03-04T14:27:35.694Z,10.30
2018-03-04T14:30:02.620Z,11.10
2018-03-04T14:32:29.210Z,13.50
2018-03-04T14:34:55.917Z,12.50
2018-03-04T14:37:22.677Z,12.50
2018-03-04T14:39:49.341Z,12.57
2018-03-04T14:42:15.935Z,11.97
2018-03-04T14:44:42.510Z,13.07
2018-03-04T14:47:09.096Z,12.13
2018-03-04T14:49:37.497Z,12.93
2018-03-04T14:52:04.166Z,13.47
2018-03-04T14:54:31.522Z,13.70
2018-03-04T14:56:58.958Z,12.80
2018-03-04T14:59:25.659Z,13.13
2018-03-04T15:01:53.170Z,12.90
2018-03-04T15:04:19.932Z,13.23
2018-03-04T15:06:46.638Z,13.63
2018-03-04T15:09:13.378Z,13.80
2018-03-04T15:11:41.796Z,13.70
2018-03-04T15:14:08.741Z,14.17
2018-03-04T15:16:35.543Z,13.77
2018-03-04T15:19:02.185Z,14.57
2018-03-04T15:21:28.914Z,15.03
2018-03-04T15:23:55.520Z,14.90
2018-03-04T15:26:22.156Z,13.63
2018-03-04T15:28:49.077Z,15.40
2018-03-04T15:31:15.790Z,14.40
2018-03-04T15:33:42.752Z,15.20
2018-03-04T15:36:10.187Z,15.73
2018-03-04T15:38:36.822Z,14.90
2018-03-04T15:41:03.613Z,15.23
2018-03-04T15:43:30.406Z,15.70
2018-03-04T15:45:57.019Z,15.90
2018-03-04T15:48:23.621Z,14.10
2018-03-04T15:50:50.214Z,14.07
2018-03-04T15:53:16.942Z,14.00
2018-03-04T15:55:45.286Z,14.60
2018-03-04T15:58:12.493Z,12.33
2018-03-04T16:00:39.930Z,13.80
2018-03-04T16:03:06.927Z,12.50
2018-03-04T16:05:33.562Z,13.83
2018-03-04T16:08:00.472Z,12.90
2018-03-04T16:10:32.671Z,12.93
2018-03-04T16:13:00.674Z,11.83
2018-03-04T16:15:27.801Z,11.30
2018-03-04T16:17:54.887Z,12.40
2018-03-04T16:20:21.549Z,9.90
2018-03-04T16:22:48.234Z,12.53
2018-03-04T16:25:15.393Z,12.70
2018-03-04T16:27:42.116Z,11.87
2018-03-04T16:30:09.788Z,11.77
2018-03-04T16:32:37.281Z,11.73
2018-03-04T16:35:05.302Z,11.27
2018-03-04T16:37:33.736Z,12.40
2018-03-04T16:40:00.749Z,11.13
2018-03-04T16:42:28.618Z,11.37
2018-03-04T16:44:56.210Z,10.53
2018-03-04T16:47:23.419Z,9.23
2018-03-04T16:49:50.560Z,11.03
2018-03-04T16:52:17.185Z,10.07
2018-03-04T16:54:43.896Z,10.00
2018-03-04T16:57:10.551Z,10.07
2018-03-04T16:59:37.459Z,11.43
2018-03-04T17:02:04.059Z,10.40
2018-03-04T17:04:31.000Z,11.30
2018-03-04T17:06:57.569Z,12.30
2018-03-04T17:09:24.222Z,9.90
2018-03-04T17:11:50.842Z,10.10
2018-03-04T17:14:17.487Z,10.47
2018-03-04T17:16:44.413Z,11.70
2018-03-04T17:19:11.465Z,10.90
2018-03-04T17:21:38.707Z,10.70
2018-03-04T17:24:06.190Z,11.57
2018-03-04T17:26:32.997Z,10.83
2018-03-04T17:28:59.822Z,12.23
2018-03-04T17:31:28.883Z,11.37
2018-03-04T17:33:56.141Z,11.40
2018-03-04T17:36:23.219Z,11.93
2018-03-04T17:38:50.908Z,12.00
2018-03-04T17:41:18.796Z,12.77
2018-03-04T17:43:46.155Z,14.10
2018-03-04T17:46:13.709Z,13.07
2018-03-04T17:48:41.422Z,14.20
2018-03-04T17:51:08.650Z,13.60
2018-03-04T17:53:36.034Z,15.40
2018-03-04T17:56:03.792Z,15.77
2018-03-04T17:58:30.773Z,16.37
2018-03-04T18:01:02.003Z,15.87
2018-03-04T18:03:28.812Z,16.87
2018-03-04T18:05:55.441Z,17.87
2018-03-04T18:08:22.171Z,17.80
2018-03-04T18:10:48.794Z,19.60
2018-03-04T18:13:15.732Z,20.23
2018-03-04T18:15:42.499Z,20.13
2018-03-04T18:18:09.184Z,23.77
2018-03-04T18:20:36.102Z,21.80
2018-03-04T18:23:02.801Z,24.00
2018-03-04T18:25:29.415Z,24.40
2018-03-04T18:27:56.255Z,25.50
2018-03-04T18:30:23.018Z,25.50
2018-03-04T18:32:50.093Z,25.67
2018-03-04T18:35:16.823Z,24.80
2018-03-04T18:37:43.438Z,22.27
2018-03-04T18:40:11.762Z,23.80
2018-03-04T18:42:38.479Z,26.00
2018-03-04T18:45:06.424Z,23.90
2018-03-04T18:47:33.638Z,25.13
2018-03-04T18:50:01.310Z,25.67
2018-03-04T18:52:29.233Z,22.80
2018-03-04T18:54:57.327Z,23.97
2018-03-04T18:57:25.565Z,25.67
2018-03-04T18:59:54.400Z,25.63
2018-03-04T19:02:23.485Z,23.03
2018-03-04T19:04:53.727Z,23.63
2018-03-04T19:07:22.158Z,23.37
2018-03-04T19:09:50.399Z,24.87
2018-03-04T19:12:18.901Z,23.97
2018-03-04T19:14:47.210Z,21.77
2018-03-04T19:17:15.689Z,23.17
2018-03-04T19:19:44.638Z,24.40
2018-03-04T19:22:13.068Z,23.10
2018-03-04T19:24:42.261Z,22.80
2018-03-04T19:27:10.578Z,22.43
2018-03-04T19:29:40.424Z,22.57
2018-03-04T19:32:08.922Z,22.70
2018-03-04T19:34:37.696Z,19.20
2018-03-04T19:37:06.011Z,21.13
2018-03-04T19:39:34.648Z,22.97
2018-03-04T19:42:03.901Z,23.03
2018-03-04T19:44:32.850Z,21.87
2018-03-04T19:47:02.114Z,22.67
2018-03-04T19:49:34.557Z,25.47
2018-03-04T19:52:03.019Z,23.47
2018-03-04T19:54:31.574Z,22.23
2018-03-04T19:56:59.999Z,23.63
2018-03-04T19:59:28.305Z,24.07
2018-03-04T20:05:09.488Z,22.47
2018-03-04T20:07:38.152Z,21.50
2018-03-04T20:10:06.428Z,24.33
2018-03-04T20:12:36.232Z,22.57
2018-03-04T20:15:04.651Z,22.23
2018-03-04T20:17:34.059Z,21.83
2018-03-04T20:22:37.007Z,23.97
2018-03-04T20:25:05.246Z,24.23
2018-03-04T20:27:33.563Z,25.00
2018-03-04T20:30:02.536Z,23.50
2018-03-04T20:32:31.006Z,23.97
2018-03-04T20:34:59.146Z,20.87
2018-03-04T20:37:27.347Z,23.30
2018-03-04T20:39:55.569Z,23.90
2018-03-04T20:42:27.971Z,24.00
2018-03-04T20:44:56.305Z,22.03
2018-03-04T20:47:25.814Z,22.30
2018-03-04T20:49:53.797Z,22.80
2018-03-04T20:52:21.928Z,24.03
2018-03-04T20:54:50.730Z,22.83
2018-03-04T20:57:19.149Z,22.63
2018-03-04T20:59:46.978Z,24.50
2018-03-04T21:02:14.245Z,22.93
2018-03-04T21:04:42.165Z,21.57
2018-03-04T21:07:10.137Z,21.43
2018-03-04T21:09:38.310Z,22.00
2018-03-04T21:12:05.779Z,20.60
2018-03-04T21:14:37.691Z,24.80
2018-03-04T21:17:04.417Z,22.50
2018-03-04T21:19:32.531Z,21.73
2018-03-04T21:21:59.327Z,22.30
2018-03-04T21:24:25.987Z,21.47
2018-03-04T21:26:53.204Z,21.03
2018-03-04T21:29:20.591Z,22.90
2018-03-04T21:31:48.629Z,21.10
2018-03-04T21:34:16.131Z,21.20
2018-03-04T21:36:46.888Z,20.03
2018-03-04T21:39:13.639Z,21.20
2018-03-04T21:41:40.757Z,20.80
2018-03-04T21:44:07.730Z,20.70
2018-03-04T21:46:34.294Z,24.57
2018-03-04T21:49:00.996Z,21.83
2018-03-04T21:51:27.569Z,23.37
2018-03-04T21:53:54.251Z,22.20
2018-03-04T21:56:21.697Z,21.40
2018-03-04T21:58:48.376Z,22.27
2018-03-04T22:01:14.928Z,21.27
2018-03-04T22:03:41.568Z,18.70
2018-03-04T22:06:08.337Z,22.03
2018-03-04T22:08:34.928Z,22.70
2018-03-04T22:11:01.550Z,24.10
2018-03-04T22:13:28.284Z,20.77
2018-03-04T22:15:54.868Z,20.47
2018-03-04T22:18:21.699Z,20.27
2018-03-04T22:20:48.270Z,22.10
2018-03-04T22:23:15.759Z,22.90
2018-03-04T22:25:42.458Z,21.00
2018-03-04T22:28:09.383Z,20.40
2018-03-04T22:30:36.201Z,19.83
2018-03-04T22:33:06.860Z,19.50
2018-03-04T22:35:33.462Z,20.33
2018-03-04T22:38:00.092Z,18.40
2018-03-04T22:40:26.976Z,21.17
2018-03-04T22:42:55.475Z,18.93
2018-03-04T22:45:22.586Z,18.60
2018-03-04T22:47:50.470Z,18.67
2018-03-04T22:50:17.314Z,17.87
2018-03-04T22:52:44.193Z,15.77
2018-03-04T22:55:10.819Z,17.13
2018-03-04T22:57:37.609Z,16.63
2018-03-04T23:00:04.398Z,17.10
2018-03-04T23:02:31.873Z,16.50
2018-03-04T23:04:58.723Z,16.43
2018-03-04T23:07:26.171Z,13.77
2018-03-04T23:09:53.535Z,16.30
2018-03-04T23:12:20.099Z,16.50
2018-03-04T23:14:46.840Z,14.60
2018-03-04T23:17:13.411Z,14.50
2018-03-04T23:19:40.058Z,14.00
2018-03-04T23:22:07.443Z,14.47
2018-03-04T23:24:34.019Z,14.10
2018-03-04T23:27:00.699Z,13.17
2018-03-04T23:29:27.286Z,13.17
2018-03-04T23:31:53.880Z,11.47
2018-03-04T23:34:21.271Z,12.27
2018-03-04T23:36:47.861Z,9.83
2018-03-04T23:39:14.477Z,11.80
2018-03-04T23:41:41.138Z,13.17
2018-03-04T23:44:08.524Z,11.30
2018-03-04T23:46:35.165Z,10.97
2018-03-04T23:49:01.905Z,11.10
2018-03-04T23:51:28.539Z,10.50
2018-03-04T23:53:55.731Z,10.50
2018-03-04T23:56:23.308Z,9.90
2018-03-04T23:58:50.574Z,10.40
